Time;durP1;ratioP1;P1;durP2;ratioP2;P2;SDS_P1;SDS_P2;PMS_P1;PMS_P2;Temp;Humidity;BMP_temperature;BMP_pressure;BME280_temperature;BME280_humidity;BME280_pressure;Samples;Min_cycle;Max_cycle;Signal;HPM_P1;HPM_P2
2023/08/28 00:01:07;;;;;;;;;;;;;;;17.45;71.48;100177.95;105809;1286;68618;-89
2023/08/28 00:04:34;;;;;;;;;;;;;;;17.45;71.60;100176.02;105645;1285;71285;-88
2023/08/28 00:08:00;;;;;;;;;;;;;;;17.47;71.58;100178.16;105462;1285;59521;-89
2023/08/28 00:11:38;;;;;;;;;;;;;;;17.47;71.61;100186.55;105770;1285;59495;-89
2023/08/28 00:15:04;;;;;;;;;;;;;;;17.45;71.60;100185.42;105682;1285;74279;-89
2023/08/28 00:18:31;;;;;;;;;;;;;;;17.42;71.71;100185.26;105589;1286;67261;-88
2023/08/28 00:21:57;;;;;;;;;;;;;;;17.40;71.82;100193.17;105700;1286;70828;-88
2023/08/28 00:25:24;;;;;;;;;;;;;;;17.43;71.85;100203.31;106061;1289;59550;-89
2023/08/28 00:28:50;;;;;;;;;;;;;;;17.42;71.82;100204.42;105773;1286;59665;-89
2023/08/28 00:32:16;;;;;;;;;;;;;;;17.39;71.78;100197.41;105791;1286;73316;-88
2023/08/28 00:35:43;;;;;;;;;;;;;;;17.37;71.78;100201.39;105762;1289;68437;-89
2023/08/28 00:39:10;;;;;;;;;;;;;;;17.34;71.83;100206.23;105549;1286;72079;-89
2023/08/28 00:42:36;;;;;;;;;;;;;;;17.35;71.94;100207.56;105483;1286;60232;-89
2023/08/28 00:46:02;;;;;;;;;;;;;;;17.34;71.87;100208.48;105586;1286;60341;-88
2023/08/28 00:49:29;;;;;;;;;;;;;;;17.31;71.91;100198.55;105551;1289;72538;-88
2023/08/28 00:52:55;;;;;;;;;;;;;;;17.31;72.01;100198.02;105411;1285;67616;-88
2023/08/28 00:56:21;;;;;;;;;;;;;;;17.28;71.99;100194.02;105950;1286;71434;-88
2023/08/28 00:59:48;;;;;;;;;;;;;;;17.25;72.13;100207.02;105375;1286;60425;-87
2023/08/28 01:03:14;;;;;;;;;;;;;;;17.25;72.17;100230.02;105664;1286;60318;-88
2023/08/28 01:06:39;;;;;;;;;;;;;;;17.28;72.12;100218.90;105703;1285;72564;-88
2023/08/28 01:10:06;;;;;;;;;;;;;;;17.29;72.11;100227.39;105657;1286;71448;-88
2023/08/28 01:13:41;;;;;;;;;;;;;;;17.29;72.16;100227.73;105736;1286;73208;-88
2023/08/28 01:17:08;;;;;;;;;;;;;;;17.28;72.19;100231.47;105389;1285;59264;-88
2023/08/28 01:20:34;;;;;;;;;;;;;;;17.26;72.35;100243.58;105753;1286;58735;-88
2023/08/28 01:24:04;;;;;;;;;;;;;;;17.22;72.38;100251.92;105518;1285;74094;-87
2023/08/28 01:27:30;;;;;;;;;;;;;;;17.18;72.45;100251.77;105733;1286;67509;-88
2023/08/28 01:30:57;;;;;;;;;;;;;;;17.18;72.29;100258.23;105772;1286;71236;-88
2023/08/28 01:34:23;;;;;;;;;;;;;;;17.17;72.32;100265.07;105722;1285;60370;-88
2023/08/28 01:37:50;;;;;;;;;;;;;;;17.12;72.48;100262.54;105549;1285;60354;-88
2023/08/28 01:41:20;;;;;;;;;;;;;;;17.10;72.55;100257.25;105803;1286;74823;-88
2023/08/28 01:44:46;;;;;;;;;;;;;;;17.10;72.66;100250.66;105606;1286;67471;-88
2023/08/28 01:48:12;;;;;;;;;;;;;;;17.08;72.73;100244.09;105689;1286;72352;-88
2023/08/28 01:51:39;;;;;;;;;;;;;;;17.05;72.97;100228.59;105751;1286;60537;-88
2023/08/28 01:54:45;;;;;;;;;;;;;;;17.05;73.00;100220.95;105831;1288;60440;-88
2023/08/28 01:58:11;;;;;;;;;;;;;;;17.04;73.05;100202.86;105378;1288;73494;-88
2023/08/28 02:01:38;;;;;;;;;;;;;;;17.03;72.94;100193.33;105310;1288;67399;-88
2023/08/28 02:05:04;;;;;;;;;;;;;;;17.00;73.14;100202.73;105773;1288;71383;-88
2023/08/28 02:08:31;;;;;;;;;;;;;;;17.00;73.06;100213.17;105568;1291;60335;-88
2023/08/28 02:11:57;;;;;;;;;;;;;;;16.99;73.07;100205.55;105649;1287;60391;-89
2023/08/28 02:15:23;;;;;;;;;;;;;;;16.99;73.09;100203.45;105882;1288;73806;-88
2023/08/28 02:18:49;;;;;;;;;;;;;;;17.00;72.99;100227.79;105567;1288;67455;-88
2023/08/28 02:22:16;;;;;;;;;;;;;;;16.97;72.98;100230.40;105599;1288;71092;-88
2023/08/28 02:25:42;;;;;;;;;;;;;;;16.92;73.05;100238.28;105495;1291;59245;-88
2023/08/28 02:29:09;;;;;;;;;;;;;;;16.88;73.15;100246.46;105648;1286;60450;-88
2023/08/28 02:32:35;;;;;;;;;;;;;;;16.89;73.16;100255.32;105739;1287;73531;-88
2023/08/28 02:36:02;;;;;;;;;;;;;;;16.88;73.18;100259.72;105627;1289;67352;-88
2023/08/28 02:39:28;;;;;;;;;;;;;;;16.87;73.06;100257.48;105290;1288;72624;-88
2023/08/28 02:42:55;;;;;;;;;;;;;;;16.90;73.04;100246.23;105630;1286;59166;-88
2023/08/28 02:46:21;;;;;;;;;;;;;;;16.90;73.22;100249.00;105624;1289;59203;-88
2023/08/28 02:49:47;;;;;;;;;;;;;;;16.88;73.29;100246.11;105591;1289;75245;-88
2023/08/28 02:53:14;;;;;;;;;;;;;;;16.87;73.23;100244.95;105622;1291;67193;-88
2023/08/28 02:56:40;;;;;;;;;;;;;;;16.86;73.32;100242.92;105597;1289;71329;-88
2023/08/28 03:00:06;;;;;;;;;;;;;;;16.84;73.26;100237.45;104857;1296;60500;-88
2023/08/28 03:03:34;;;;;;;;;;;;;;;16.83;73.50;100235.06;104744;1297;60477;-88
2023/08/28 03:06:59;;;;;;;;;;;;;;;16.81;73.45;100239.30;104674;1296;72575;-88
2023/08/28 03:10:26;;;;;;;;;;;;;;;16.79;73.46;100238.55;104803;1296;68254;-88
2023/08/28 03:13:52;;;;;;;;;;;;;;;16.78;73.53;100237.39;104797;1298;72761;-88
2023/08/28 03:17:19;;;;;;;;;;;;;;;16.76;73.48;100229.98;104768;1297;60232;-88
2023/08/28 03:20:45;;;;;;;;;;;;;;;16.76;73.44;100232.80;104800;1296;60595;-88
2023/08/28 03:24:12;;;;;;;;;;;;;;;16.75;73.52;100229.36;104842;1296;72432;-88
2023/08/28 03:27:38;;;;;;;;;;;;;;;16.70;73.54;100231.17;104752;1298;67297;-88
2023/08/28 03:31:05;;;;;;;;;;;;;;;16.67;73.39;100231.30;104729;1300;74211;-87
2023/08/28 03:34:31;;;;;;;;;;;;;;;16.63;73.41;100230.30;104743;1298;60426;-88
2023/08/28 03:37:58;;;;;;;;;;;;;;;16.60;73.51;100238.08;105470;1288;60459;-88
2023/08/28 03:41:24;;;;;;;;;;;;;;;16.56;73.42;100235.98;105677;1289;74135;-88
2023/08/28 03:44:50;;;;;;;;;;;;;;;16.51;73.40;100237.94;105570;1288;69194;-88
2023/08/28 03:48:17;;;;;;;;;;;;;;;16.47;73.40;100242.48;105605;1287;72120;-88
2023/08/28 03:51:44;;;;;;;;;;;;;;;16.43;73.35;100246.66;105611;1289;60385;-87
2023/08/28 03:55:10;;;;;;;;;;;;;;;16.36;73.34;100250.64;105536;1288;60370;-88
2023/08/28 03:58:35;;;;;;;;;;;;;;;16.32;73.40;100271.00;105710;1287;73859;-88
2023/08/28 04:02:02;;;;;;;;;;;;;;;16.28;73.51;100280.43;105570;1288;67273;-88
2023/08/28 04:05:28;;;;;;;;;;;;;;;16.23;73.53;100279.41;105549;1291;75258;-88
2023/08/28 04:08:55;;;;;;;;;;;;;;;16.22;73.62;100280.48;105626;1288;59446;-88
2023/08/28 04:12:21;;;;;;;;;;;;;;;16.21;73.71;100286.48;105606;1288;60360;-87
2023/08/28 04:15:48;;;;;;;;;;;;;;;16.21;73.78;100285.58;105337;1288;75217;-88
2023/08/28 04:19:14;;;;;;;;;;;;;;;16.25;73.79;100290.83;105641;1289;68442;-88
2023/08/28 04:22:41;;;;;;;;;;;;;;;16.28;73.90;100299.38;105582;1287;72154;-88
2023/08/28 04:26:07;;;;;;;;;;;;;;;16.30;73.90;100293.20;105700;1288;60530;-88
2023/08/28 04:29:33;;;;;;;;;;;;;;;16.32;73.86;100300.08;105620;1286;59298;-88
2023/08/28 04:33:00;;;;;;;;;;;;;;;16.33;73.88;100294.78;105657;1291;74141;-87
2023/08/28 04:36:26;;;;;;;;;;;;;;;16.37;73.90;100288.01;105655;1289;68676;-88
2023/08/28 04:39:51;;;;;;;;;;;;;;;16.42;73.80;100283.61;105728;1288;71385;-89
2023/08/28 04:43:15;;;;;;;;;;;;;;;16.44;73.81;100279.16;105687;1289;61047;-88
2023/08/28 04:46:40;;;;;;;;;;;;;;;16.47;73.92;100280.05;105678;1288;59688;-88
2023/08/28 04:50:06;;;;;;;;;;;;;;;16.53;73.97;100288.85;105629;1288;73251;-88
2023/08/28 04:53:33;;;;;;;;;;;;;;;16.55;73.95;100295.36;105729;1285;67175;-88
2023/08/28 04:56:59;;;;;;;;;;;;;;;16.58;74.04;100295.73;105681;1288;75175;-88
2023/08/28 05:00:27;;;;;;;;;;;;;;;16.62;74.02;100296.97;105674;1290;60213;-88
2023/08/28 05:03:53;;;;;;;;;;;;;;;16.65;74.07;100309.17;105587;1288;58574;-89
2023/08/28 05:07:19;;;;;;;;;;;;;;;16.68;74.09;100309.58;105731;1288;73100;-88
2023/08/28 05:10:45;;;;;;;;;;;;;;;16.72;74.05;100308.86;105565;1288;67219;-88
2023/08/28 05:14:11;;;;;;;;;;;;;;;16.73;74.11;100308.63;105608;1289;72496;-88
2023/08/28 05:17:38;;;;;;;;;;;;;;;16.75;74.11;100307.66;105675;1288;60358;-88
2023/08/28 05:21:05;;;;;;;;;;;;;;;16.78;74.07;100305.77;105532;1289;60345;-88
2023/08/28 05:24:31;;;;;;;;;;;;;;;16.83;74.23;100306.61;105622;1288;72324;-88
2023/08/28 05:27:57;;;;;;;;;;;;;;;16.91;74.07;100312.84;105693;1289;69378;-88
2023/08/28 05:31:24;;;;;;;;;;;;;;;16.95;74.04;100317.36;105727;1288;71133;-88
2023/08/28 05:34:50;;;;;;;;;;;;;;;17.03;74.30;100322.02;105653;1288;60456;-87
2023/08/28 05:38:17;;;;;;;;;;;;;;;17.12;74.23;100327.67;105546;1287;60456;-88
2023/08/28 05:41:43;;;;;;;;;;;;;;;17.18;74.10;100331.70;105642;1290;72358;-89
2023/08/28 05:45:10;;;;;;;;;;;;;;;17.23;74.14;100338.65;105648;1289;67177;-89
2023/08/28 05:48:36;;;;;;;;;;;;;;;17.28;74.19;100344.69;104936;1289;216563;-88
2023/08/28 05:52:03;;;;;;;;;;;;;;;17.31;74.09;100348.55;105252;1289;60328;-88
2023/08/28 05:55:29;;;;;;;;;;;;;;;17.33;74.13;100340.26;105262;1289;61510;-88
2023/08/28 05:58:55;;;;;;;;;;;;;;;17.41;74.20;100345.45;105119;1292;72908;-88
2023/08/28 06:02:22;;;;;;;;;;;;;;;17.45;74.10;100347.86;104903;1290;68390;-88
2023/08/28 06:05:48;;;;;;;;;;;;;;;17.49;74.09;100339.48;105172;1289;71046;-88
2023/08/28 06:09:15;;;;;;;;;;;;;;;17.62;74.32;100337.07;105224;1289;60358;-88
2023/08/28 06:12:41;;;;;;;;;;;;;;;18.12;74.13;100343.80;105066;1289;59350;-88
2023/08/28 06:16:08;;;;;;;;;;;;;;;18.94;74.36;100338.16;105434;1292;72755;-88
2023/08/28 06:19:34;;;;;;;;;;;;;;;19.52;73.77;100338.79;105478;1289;67098;-88
2023/08/28 06:23:06;;;;;;;;;;;;;;;19.78;73.60;100342.67;104929;1289;72055;-88
2023/08/28 06:26:33;;;;;;;;;;;;;;;20.43;73.67;100349.76;105262;1289;60970;-88
2023/08/28 06:29:59;;;;;;;;;;;;;;;20.92;72.76;100350.93;105245;1289;60594;-88
2023/08/28 06:33:26;;;;;;;;;;;;;;;20.99;72.59;100351.16;105370;1292;72730;-88
2023/08/28 06:36:52;;;;;;;;;;;;;;;21.25;72.07;100349.17;105033;1291;70065;-88
2023/08/28 06:40:19;;;;;;;;;;;;;;;21.15;72.08;100346.66;105173;1289;73015;-88
2023/08/28 06:43:45;;;;;;;;;;;;;;;21.81;72.38;100350.37;105135;1289;60469;-88
2023/08/28 06:47:13;;;;;;;;;;;;;;;22.43;71.67;100350.83;105149;1289;59088;-88
2023/08/28 06:50:38;;;;;;;;;;;;;;;22.42;71.62;100355.64;105511;1289;73132;-88
2023/08/28 06:54:06;;;;;;;;;;;;;;;22.43;71.78;100361.20;105354;1289;68139;-88
2023/08/28 06:57:31;;;;;;;;;;;;;;;23.00;71.10;100365.08;105311;1290;71406;-89
2023/08/28 07:00:57;;;;;;;;;;;;;;;22.96;71.03;100369.08;105349;1289;60988;-88
2023/08/28 07:04:24;;;;;;;;;;;;;;;23.20;70.73;100374.37;105448;1289;60463;-89
2023/08/28 07:07:50;;;;;;;;;;;;;;;22.96;70.44;100377.14;101530;1292;5206875;-89
2023/08/28 07:11:17;;;;;;;;;;;;;;;22.61;70.45;100386.00;105254;1292;68655;-89
2023/08/28 07:14:43;;;;;;;;;;;;;;;22.97;70.26;100389.80;105407;1292;71320;-89
2023/08/28 07:18:10;;;;;;;;;;;;;;;22.83;69.90;100382.15;105391;1289;60545;-89
2023/08/28 07:21:36;;;;;;;;;;;;;;;22.52;70.00;100382.90;105396;1291;60319;-89
2023/08/28 07:25:02;;;;;;;;;;;;;;;22.89;70.12;100385.19;105424;1292;72484;-89
2023/08/28 07:28:29;;;;;;;;;;;;;;;23.92;70.14;100380.10;105300;1289;68125;-89
2023/08/28 07:31:55;;;;;;;;;;;;;;;26.33;69.42;100391.84;105402;1289;71076;-89
2023/08/28 07:35:22;;;;;;;;;;;;;;;27.55;68.07;100393.73;105347;1289;60469;-89
2023/08/28 07:38:51;;;;;;;;;;;;;;;27.90;67.61;100398.04;105339;1289;60322;-89
2023/08/28 07:42:17;;;;;;;;;;;;;;;27.81;68.20;100393.63;105537;1291;72522;-89
2023/08/28 07:45:44;;;;;;;;;;;;;;;27.74;67.67;100389.45;105667;1289;68062;-89
2023/08/28 07:49:10;;;;;;;;;;;;;;;26.85;67.48;100392.16;105375;1292;71306;-89
2023/08/28 07:52:36;;;;;;;;;;;;;;;25.94;67.53;100393.64;105380;1289;59165;-89
2023/08/28 07:56:03;;;;;;;;;;;;;;;25.35;67.80;100388.98;105393;1289;60293;-89
2023/08/28 07:59:29;;;;;;;;;;;;;;;25.28;67.68;100386.02;105342;1293;72552;-89
2023/08/28 08:02:56;;;;;;;;;;;;;;;26.68;67.42;100390.48;105390;1291;68428;-90
2023/08/28 08:06:22;;;;;;;;;;;;;;;28.00;66.44;100389.70;105319;1292;71294;-89
2023/08/28 08:09:49;;;;;;;;;;;;;;;28.65;65.86;100390.70;105336;1289;59516;-89
2023/08/28 08:13:15;;;;;;;;;;;;;;;28.99;65.20;100393.11;105352;1289;59129;-89
2023/08/28 08:16:41;;;;;;;;;;;;;;;28.73;64.91;100396.09;105475;1289;72643;-89
2023/08/28 08:20:11;;;;;;;;;;;;;;;27.87;64.86;100392.68;105373;1291;67408;-89
2023/08/28 08:23:37;;;;;;;;;;;;;;;26.90;65.38;100396.88;105432;1289;71845;-89
2023/08/28 08:27:05;;;;;;;;;;;;;;;25.93;65.28;100402.14;105373;1292;59292;-90
2023/08/28 08:30:32;;;;;;;;;;;;;;;25.05;65.15;100402.65;105405;1291;59492;-89
2023/08/28 08:33:58;;;;;;;;;;;;;;;24.37;64.93;100405.23;105380;1290;72381;-89
2023/08/28 08:37:28;;;;;;;;;;;;;;;23.84;64.80;100411.89;105416;1289;69996;-89
2023/08/28 08:40:58;;;;;;;;;;;;;;;23.45;64.72;100412.14;105370;1290;75827;-88
2023/08/28 08:44:24;;;;;;;;;;;;;;;23.21;64.60;100416.02;105336;1289;60414;-88
2023/08/28 08:47:51;;;;;;;;;;;;;;;23.00;64.42;100413.06;105353;1290;60549;-89
2023/08/28 08:51:17;;;;;;;;;;;;;;;22.89;64.49;100411.41;105369;1291;75149;-91
2023/08/28 08:54:44;;;;;;;;;;;;;;;22.78;64.40;100411.67;105339;1292;67148;-90
2023/08/28 08:58:10;;;;;;;;;;;;;;;22.71;64.23;100414.23;105386;1292;74002;-90
2023/08/28 09:01:36;;;;;;;;;;;;;;;22.57;64.02;100415.43;105439;1294;58413;-90
2023/08/28 09:05:03;;;;;;;;;;;;;;;22.45;64.03;100415.02;105551;1289;60797;-90
2023/08/28 09:08:29;;;;;;;;;;;;;;;22.40;63.93;100420.23;105389;1292;72760;-90
2023/08/28 09:11:56;;;;;;;;;;;;;;;22.33;63.82;100425.83;105444;1292;67186;-90
2023/08/28 09:15:22;;;;;;;;;;;;;;;22.22;63.64;100425.39;105377;1289;71584;-89
2023/08/28 09:18:48;;;;;;;;;;;;;;;22.10;63.70;100422.00;105413;1289;58667;-90
2023/08/28 09:22:15;;;;;;;;;;;;;;;21.93;63.63;100422.93;105472;1289;60396;-90
2023/08/28 09:25:41;;;;;;;;;;;;;;;21.77;63.63;100432.27;105390;1294;73522;-90
2023/08/28 09:29:20;;;;;;;;;;;;;;;21.63;63.78;100435.11;105431;1291;69711;-90
2023/08/28 09:32:46;;;;;;;;;;;;;;;21.46;63.59;100435.00;105382;1292;71137;-90
2023/08/28 09:36:12;;;;;;;;;;;;;;;21.36;63.60;100438.91;105436;1292;60443;-90
2023/08/28 09:39:39;;;;;;;;;;;;;;;21.30;63.71;100432.30;105384;1291;60527;-90
2023/08/28 09:43:05;;;;;;;;;;;;;;;21.24;63.65;100426.23;105380;1289;71936;-90
2023/08/28 09:46:31;;;;;;;;;;;;;;;21.18;63.63;100423.08;105426;1289;69122;-90
2023/08/28 09:50:04;;;;;;;;;;;;;;;21.17;63.54;100420.87;105405;1292;71212;-90
2023/08/28 09:53:30;;;;;;;;;;;;;;;21.12;63.45;100421.32;105371;1289;60333;-89
2023/08/28 09:56:57;;;;;;;;;;;;;;;21.09;63.29;100419.05;105437;1289;61168;-89
2023/08/28 10:00:23;;;;;;;;;;;;;;;21.08;63.41;100417.56;105475;1289;72615;-90
2023/08/28 10:03:50;;;;;;;;;;;;;;;21.11;63.29;100422.77;105433;1290;67476;-89
2023/08/28 10:07:15;;;;;;;;;;;;;;;21.16;63.16;100414.97;105385;1289;72966;-89
2023/08/28 10:10:19;;;;;;;;;;;;;;;21.18;63.24;100420.26;105453;1289;58478;-89
2023/08/28 10:13:34;;;;;;;;;;;;;;;21.24;63.27;100420.81;105401;1292;58825;-89
2023/08/28 10:16:24;;;;;;;;;;;;;;;21.35;63.28;100425.52;105475;1289;71999;-88
2023/08/28 10:19:38;;;;;;;;;;;;;;;21.43;63.09;100430.94;105355;1290;67232;-88
2023/08/28 10:22:25;;;;;;;;;;;;;;;21.49;63.06;100434.59;104646;1300;72389;-88
2023/08/28 10:25:14;;;;;;;;;;;;;;;21.51;62.86;100433.06;104715;1303;60435;-88
2023/08/28 10:28:09;;;;;;;;;;;;;;;21.46;62.73;100442.48;104706;1303;60653;-88
2023/08/28 10:30:56;;;;;;;;;;;;;;;21.38;62.52;100436.55;104744;1300;72454;-88
2023/08/28 10:33:48;;;;;;;;;;;;;;;21.34;62.67;100432.58;104692;1300;67580;-89
2023/08/28 10:36:56;;;;;;;;;;;;;;;21.36;62.78;100420.84;104676;1300;72126;-89
2023/08/28 10:39:43;;;;;;;;;;;;;;;21.43;62.60;100413.93;104677;1300;59354;-88
2023/08/28 10:43:09;;;;;;;;;;;;;;;21.43;62.69;100411.85;104696;1301;60380;-88
2023/08/28 10:46:03;;;;;;;;;;;;;;;21.46;62.57;100404.23;104702;1299;74115;-88
2023/08/28 10:49:16;;;;;;;;;;;;;;;21.51;62.64;100399.55;105316;1300;68808;-88
2023/08/28 10:52:06;;;;;;;;;;;;;;;21.57;62.57;100398.77;104562;1301;225881;-88
2023/08/28 10:55:13;;;;;;;;;;;;;;;21.60;62.47;100400.20;104570;1301;60557;-88
2023/08/28 10:58:22;;;;;;;;;;;;;;;21.62;62.43;100404.44;104785;1300;58584;-88
2023/08/28 11:01:47;;;;;;;;;;;;;;;21.65;62.51;100409.00;105402;1289;73761;-87
2023/08/28 11:04:45;;;;;;;;;;;;;;;21.69;62.42;100407.16;105072;1292;71355;-88
2023/08/28 11:08:11;;;;;;;;;;;;;;;21.71;62.46;100401.95;105354;1295;71489;-87
2023/08/28 11:11:36;;;;;;;;;;;;;;;21.70;62.49;100399.55;105397;1292;60294;-87
2023/08/28 11:14:43;;;;;;;;;;;;;;;21.68;62.51;100402.13;105134;1297;60307;-87
2023/08/28 11:17:50;;;;;;;;;;;;;;;21.67;62.22;100399.05;105103;1292;72585;-87
2023/08/28 11:21:16;;;;;;;;;;;;;;;21.64;62.19;100397.82;105262;1292;68437;-87
2023/08/28 11:24:45;;;;;;;;;;;;;;;21.63;62.30;100400.34;105009;1292;71244;-88
2023/08/28 11:28:14;;;;;;;;;;;;;;;21.57;62.25;100407.22;105215;1293;59552;-88
2023/08/28 11:31:20;;;;;;;;;;;;;;;21.49;62.29;100403.17;105152;1292;60309;-86
2023/08/28 11:34:26;;;;;;;;;;;;;;;21.44;62.17;100395.59;105036;1298;74448;-86
2023/08/28 11:37:36;;;;;;;;;;;;;;;21.41;62.24;100390.76;105878;1292;67300;-87
2023/08/28 11:40:42;;;;;;;;;;;;;;;21.38;62.26;100397.23;105359;1294;72024;-87
2023/08/28 11:43:50;;;;;;;;;;;;;;;21.30;62.35;100405.64;105345;1291;60609;-86
2023/08/28 11:46:56;;;;;;;;;;;;;;;21.20;62.36;100404.91;106098;1293;58900;-87
2023/08/28 11:49:45;;;;;;;;;;;;;;;21.12;62.40;100404.17;105343;1293;73141;-86
2023/08/28 11:52:42;;;;;;;;;;;;;;;21.07;62.37;100395.21;105649;1289;67316;-87
2023/08/28 11:55:33;;;;;;;;;;;;;;;21.00;62.24;100387.23;106068;1289;72448;-87
2023/08/28 11:58:23;;;;;;;;;;;;;;;20.92;62.48;100368.46;106006;1290;60766;-87
2023/08/28 12:01:31;;;;;;;;;;;;;;;20.90;62.48;100350.18;105454;1294;60154;-86
2023/08/28 12:04:22;;;;;;;;;;;;;;;20.96;62.39;100344.02;105432;1290;73783;-86
2023/08/28 12:07:35;;;;;;;;;;;;;;;20.92;62.49;100351.11;105399;1290;67375;-85
2023/08/28 12:10:41;;;;;;;;;;;;;;;20.85;62.47;100379.91;105437;1294;72558;-86
2023/08/28 12:14:07;;;;;;;;;;;;;;;20.81;62.28;100397.89;105401;1289;60460;-87
2023/08/28 12:17:21;;;;;;;;;;;;;;;20.74;62.39;100407.58;105501;1295;60315;-86
2023/08/28 12:20:19;;;;;;;;;;;;;;;20.71;62.33;100424.81;105426;1295;73741;-87
2023/08/28 12:23:06;;;;;;;;;;;;;;;20.65;62.28;100425.87;105537;1289;67344;-86
2023/08/28 12:25:53;;;;;;;;;;;;;;;20.59;62.23;100419.08;105309;1292;71927;-86
2023/08/28 12:28:42;;;;;;;;;;;;;;;20.53;62.30;100415.41;105360;1289;58993;-85
2023/08/28 12:31:48;;;;;;;;;;;;;;;20.44;62.13;100414.12;105535;1289;60356;-86
2023/08/28 12:34:51;;;;;;;;;;;;;;;20.34;61.98;100386.21;105442;1289;73340;-86
2023/08/28 12:38:09;;;;;;;;;;;;;;;20.24;62.14;100360.58;105168;1294;289922;-86
2023/08/28 12:40:54;;;;;;;;;;;;;;;20.15;62.47;100370.92;105448;1294;71419;-85
2023/08/28 12:43:39;;;;;;;;;;;;;;;20.06;62.69;100396.29;105177;1290;59295;-84
2023/08/28 12:46:44;;;;;;;;;;;;;;;20.01;62.77;100409.19;104495;1289;60393;-87
2023/08/28 12:50:10;;;;;;;;;;;;;;;19.92;62.95;100437.88;104887;1294;73325;-87
2023/08/28 12:53:37;;;;;;;;;;;;;;;19.85;62.91;100463.83;104734;1289;67121;-87
2023/08/28 12:57:04;;;;;;;;;;;;;;;19.77;62.88;100462.02;104805;1291;72439;-87
2023/08/28 13:00:30;;;;;;;;;;;;;;;19.66;63.12;100450.77;105975;1289;58639;-89
2023/08/28 13:03:57;;;;;;;;;;;;;;;19.54;63.25;100450.59;106282;1289;60531;-90
2023/08/28 13:07:23;;;;;;;;;;;;;;;19.52;63.35;100433.88;106229;1289;73759;-91
2023/08/28 13:10:50;;;;;;;;;;;;;;;19.51;63.33;100430.27;104833;1295;67207;-89
2023/08/28 13:14:16;;;;;;;;;;;;;;;19.47;63.59;100448.83;104893;1289;72036;-89
2023/08/28 13:17:43;;;;;;;;;;;;;;;19.51;63.76;100448.61;104823;1289;61105;-89
2023/08/28 13:21:10;;;;;;;;;;;;;;;19.59;63.74;100433.86;104864;1290;61199;-90
2023/08/28 13:24:36;;;;;;;;;;;;;;;19.66;63.53;100433.96;104807;1289;75216;-90
2023/08/28 13:28:02;;;;;;;;;;;;;;;19.70;63.73;100446.70;104907;1289;68919;-90
2023/08/28 13:31:31;;;;;;;;;;;;;;;19.76;63.80;100438.27;105455;1293;72533;-90
2023/08/28 13:34:35;;;;;;;;;;;;;;;19.81;63.87;100428.53;104711;1290;60588;-87
2023/08/28 13:37:21;;;;;;;;;;;;;;;19.87;63.81;100411.25;104616;1289;59298;-86
2023/08/28 13:40:08;;;;;;;;;;;;;;;19.89;63.79;100429.35;104723;1289;71697;-86
2023/08/28 13:42:55;;;;;;;;;;;;;;;19.88;63.86;100436.70;104500;1293;67349;-87
2023/08/28 13:45:41;;;;;;;;;;;;;;;19.90;63.93;100441.84;104342;1297;73997;-87
2023/08/28 13:48:28;;;;;;;;;;;;;;;19.90;64.00;100446.06;104338;1297;60482;-87
2023/08/28 13:51:14;;;;;;;;;;;;;;;19.85;64.04;100458.08;104299;1297;61956;-87
2023/08/28 13:54:21;;;;;;;;;;;;;;;19.79;64.08;100456.28;104503;1292;75035;-89
2023/08/28 13:57:48;;;;;;;;;;;;;;;19.73;64.11;100445.84;104577;1295;68161;-90
2023/08/28 14:01:14;;;;;;;;;;;;;;;19.68;64.21;100443.67;104513;1292;72583;-90
2023/08/28 14:04:41;;;;;;;;;;;;;;;19.66;64.21;100428.39;104616;1293;63633;-90
2023/08/28 14:08:07;;;;;;;;;;;;;;;19.66;64.39;100429.45;104684;1293;63055;-90
2023/08/28 14:11:37;;;;;;;;;;;;;;;19.66;64.47;100421.41;104619;1292;73846;-91
2023/08/28 14:15:04;;;;;;;;;;;;;;;19.65;64.42;100396.05;104848;1289;70284;-91
2023/08/28 14:18:31;;;;;;;;;;;;;;;19.65;64.58;100387.19;104883;1293;71418;-90
2023/08/28 14:21:57;;;;;;;;;;;;;;;19.63;64.59;100374.87;104820;1288;60521;-90
2023/08/28 14:25:24;;;;;;;;;;;;;;;19.63;64.50;100374.14;104806;1289;61875;-90
2023/08/28 14:28:51;;;;;;;;;;;;;;;19.62;64.64;100365.64;104882;1292;74248;-90
2023/08/28 14:32:17;;;;;;;;;;;;;;;19.63;64.57;100353.17;104935;1289;67160;-91
2023/08/28 14:35:49;;;;;;;;;;;;;;;19.64;64.70;100356.44;104914;1291;71376;-91
2023/08/28 14:39:17;;;;;;;;;;;;;;;19.59;64.65;100366.86;105036;1288;60629;-90
2023/08/28 14:42:49;;;;;;;;;;;;;;;19.54;64.72;100379.60;104839;1288;60769;-90
2023/08/28 14:46:13;;;;;;;;;;;;;;;19.46;64.85;100386.45;104931;1288;75165;-90
2023/08/28 14:49:40;;;;;;;;;;;;;;;19.38;65.01;100378.49;104885;1289;67982;-90
2023/08/28 14:52:46;;;;;;;;;;;;;;;19.31;64.94;100375.41;104689;1289;73375;-86
2023/08/28 14:55:32;;;;;;;;;;;;;;;19.25;64.85;100373.86;104709;1289;60377;-86
2023/08/28 14:58:20;;;;;;;;;;;;;;;19.19;64.89;100377.71;104600;1291;60363;-86
2023/08/28 15:01:06;;;;;;;;;;;;;;;19.12;65.17;100383.14;104647;1289;73219;-86
2023/08/28 15:04:13;;;;;;;;;;;;;;;19.06;65.29;100397.63;104700;1289;67392;-91
2023/08/28 15:07:39;;;;;;;;;;;;;;;18.99;65.29;100405.52;104848;1292;75184;-90
2023/08/28 15:11:06;;;;;;;;;;;;;;;18.95;65.45;100423.04;105443;1288;60360;-90
2023/08/28 15:14:32;;;;;;;;;;;;;;;18.89;65.40;100438.39;104906;1289;59691;-89
2023/08/28 15:17:59;;;;;;;;;;;;;;;18.85;65.48;100437.90;104990;1289;73564;-90
2023/08/28 15:21:25;;;;;;;;;;;;;;;18.79;65.47;100452.37;104848;1289;68274;-89
2023/08/28 15:24:52;;;;;;;;;;;;;;;18.75;65.67;100446.81;105039;1289;71399;-91
2023/08/28 15:28:18;;;;;;;;;;;;;;;18.69;65.67;100447.66;104907;1289;60553;-90
2023/08/28 15:31:52;;;;;;;;;;;;;;;18.64;65.59;100447.08;104884;1291;60323;-91
2023/08/28 15:34:55;;;;;;;;;;;;;;;18.55;65.73;100449.42;104708;1289;73274;-86
2023/08/28 15:37:44;;;;;;;;;;;;;;;18.50;65.82;100457.35;104772;1289;68388;-87
2023/08/28 15:40:36;;;;;;;;;;;;;;;18.46;65.74;100468.55;104654;1289;73225;-87
2023/08/28 15:43:21;;;;;;;;;;;;;;;18.41;65.87;100473.89;104485;1289;60482;-87
2023/08/28 15:46:05;;;;;;;;;;;;;;;18.37;65.94;100469.19;104646;1288;60473;-86
2023/08/28 15:48:51;;;;;;;;;;;;;;;18.34;65.92;100466.22;105407;1291;77863;-86
2023/08/28 15:51:37;;;;;;;;;;;;;;;18.26;65.95;100463.10;105409;1289;67995;-86
2023/08/28 15:54:24;;;;;;;;;;;;;;;18.22;66.07;100477.62;105399;1288;71343;-88
2023/08/28 15:57:11;;;;;;;;;;;;;;;18.17;66.18;100471.80;105404;1291;61576;-86
2023/08/28 15:59:58;;;;;;;;;;;;;;;18.13;66.22;100467.98;105454;1289;60408;-86
2023/08/28 16:02:45;;;;;;;;;;;;;;;18.12;66.24;100469.95;105359;1289;72397;-86
2023/08/28 16:05:31;;;;;;;;;;;;;;;18.11;66.38;100470.86;105401;1289;67413;-86
2023/08/28 16:08:17;;;;;;;;;;;;;;;18.08;66.37;100473.25;105206;1289;71181;-86
2023/08/28 16:11:03;;;;;;;;;;;;;;;18.06;66.56;100473.38;105341;1294;60325;-86
2023/08/28 16:13:49;;;;;;;;;;;;;;;18.03;66.47;100463.92;105427;1289;60318;-86
2023/08/28 16:16:37;;;;;;;;;;;;;;;18.01;66.65;100470.50;105256;1289;72441;-86
2023/08/28 16:19:25;;;;;;;;;;;;;;;17.99;66.70;100472.14;105324;1289;67212;-86
2023/08/28 16:22:12;;;;;;;;;;;;;;;17.98;66.75;100471.33;105356;1289;74090;-86
2023/08/28 16:24:59;;;;;;;;;;;;;;;17.99;66.90;100465.20;105807;1289;60546;-86
2023/08/28 16:27:45;;;;;;;;;;;;;;;18.00;66.89;100464.98;105229;1289;59327;-86
2023/08/28 16:30:32;;;;;;;;;;;;;;;17.97;66.92;100456.36;105317;1289;73729;-86
2023/08/28 16:33:18;;;;;;;;;;;;;;;17.96;66.97;100451.39;105198;1288;68659;-86
2023/08/28 16:36:05;;;;;;;;;;;;;;;17.95;67.03;100450.23;105225;1289;71619;-86
2023/08/28 16:38:52;;;;;;;;;;;;;;;17.92;67.22;100456.63;105086;1293;60469;-86
2023/08/28 16:41:38;;;;;;;;;;;;;;;17.91;67.16;100457.19;105126;1292;59175;-86